Terminal Aerodrome Forecast
Issued by NWS

Home | Current Version | Previous Version | Text Only | Print | Product List | Glossary On
Versions: 1 2 3 4 5 6 7 8 9 10 11 12 13 14 15 16
000
FTUS44 KTSA 241100
TAFMLC
TAF
KMLC 241120Z 2412/2512 VRB03KT P6SM SCT250
      TEMPO 2412/2415 1/2SM FG VV002
     FM241500 15007KT P6SM SCT045
     FM250100 18003KT P6SM SKC=

USA.gov is the U.S. government's official web portal to all federal, state and local government web resources and services.